Oslo, Norway
Current Conditions -  °F | °C
As of 9:50 AM on Thursday 23 Oct 2014 (Local Time) from ENGM Reporting Station
Light Rain Light Rain  
Wind Chill: 33°   Ceiling: 500
Heat Index: 37°   Visibility: 6mi
Dew Point: 36°   Wind: 6mph
Humidity: 93%   Direction: 120°ESE
Pressure: 30"   Gusts: NA
Location:  60.2°N, 11.08°E
Report Text: ENGM 230750Z 12005KT 080V210 9000 -RA OVC005 03/02 Q1016 NOSIG
Loading
Personal Weather Stations






























Interactive Weather Map
Tropical Storm Tracking
New forecast layout! Learn more

10-Day Weather Forecast

Advertisements
Track Severe Weather on mobile